Flight Track Log - Related Links

Times and Time Zones

All times are in EDT time to prevent confusion due to time zone crossing. See the RPA3159 flight status page for this flight to view local times or setup timezone preferences in your user account.

Time Position Orientation Groundspeed Altitude Reporting Facility
EDT Latitude Longitude Course Direction KTS MPH feet Rate Location/Type
Wed 12:25:00 PM 44.1694 -73.2615 195° South  Level FlightAware Approximate
Wed 12:26:00 PM 44.0697 -73.2989 195° South  Level FlightAware Approximate
Wed 12:26:08 PM 44.5117 -73.3861 198° South 264 304 9,300  Level Boston Center
Wed 12:27:00 PM 43.9694 -73.3325 194° South  Level FlightAware Approximate
Wed 12:27:08 PM 44.4403 -73.4344 206° Southwest 290 334 10,200  Level Boston Center
Wed 12:28:00 PM 43.8694 -73.3678 195° South  Level FlightAware Approximate
Wed 12:28:08 PM 44.3589 -73.4736 199° South 302 348 13,500  Level Boston Center
Wed 12:29:00 PM 43.7698 -73.4052 195° South  Level FlightAware Approximate
Wed 12:29:08 PM 44.2650 -73.4692 178° South 324 373 14,900  Level Boston Center
Wed 12:30:00 PM 43.6702 -73.4425 195° South  Level FlightAware Approximate
Wed 12:30:08 PM 44.1669 -73.4847 186° South 355 409 16,700  Level Boston Center
Wed 12:31:00 PM 43.5718 -73.4856 198° South  Level FlightAware Approximate
Wed 12:31:08 PM 44.0667 -73.5092 190° South 367 422 18,400  Level Boston Center
Wed 12:32:08 PM 43.9644 -73.5389 192° South 377 434 20,300 1,800 Climbing Boston Center
Wed 12:33:08 PM 43.8761 -73.6122 211° Southwest 372 428 22,000 1,600 Climbing Boston Center
Wed 12:34:08 PM 43.7836 -73.6853 210° Southwest 382 440 23,500 1,364 Climbing Boston Center
Wed 12:35:20 PM 43.6700 -73.7747 210° Southwest 396 456 25,000 1,136 Climbing Boston Center
Wed 12:36:20 PM 43.5839 -73.8444 210° Southwest 401 461 26,000 500 Climbing Boston Center
Wed 12:37:20 PM 43.4892 -73.9253 212° Southwest 408 470 26,000  Level Boston Center
Wed 12:38:20 PM 43.3817 -74.0083 209° Southwest 408 470 26,000  Level Boston Center
Wed 12:39:20 PM 43.2847 -74.0886 211° Southwest 408 470 26,000  Level Boston Center
Wed 12:40:20 PM 43.1856 -74.1686 210° Southwest 414 476 26,000  Level Boston Center
Wed 12:41:32 PM 43.0864 -74.2483 210° Southwest 414 476 26,000  Level Boston Center
Wed 12:42:32 PM 42.9661 -74.3411 209° Southwest 414 476 26,000  Level Boston Center
Wed 12:43:32 PM 42.8667 -74.4231 211° Southwest 409 471 26,000  Level Boston Center
Wed 12:44:32 PM 42.7694 -74.4992 210° Southwest 409 471 26,000  Level Boston Center
Wed 12:45:32 PM 42.6678 -74.5806 210° Southwest 415 478 26,000  Level Boston Center
Wed 12:46:32 PM 42.5683 -74.6561 209° Southwest 415 478 26,000 -350 Level Boston Center
Wed 12:47:32 PM 42.4711 -74.7342 211° Southwest 415 478 25,300 -800 Descending Boston Center
Wed 12:48:32 PM 42.3736 -74.8092 210° Southwest 410 472 24,400 -1,543 Descending Boston Center
Wed 12:50:27 PM 42.1911 -74.9497 210° Southwest 405 466 20,800 -1,841 Descending New York Center
Wed 12:51:28 PM 42.1056 -75.0169 210° Southwest 411 473 19,000 -885 Descending New York Center
Wed 12:52:29 PM 42.0089 -75.1000 213° Southwest 391 450 19,000  Level New York Center
Wed 12:53:29 PM 41.9272 -75.1672 211° Southwest 386 444 19,000 -203 Level New York Center
Wed 12:54:27 PM 41.8350 -75.2417 211° Southwest 386 444 18,600 -605 Descending New York Center
Wed 12:55:28 PM 41.7361 -75.3214 211° Southwest 391 450 17,800 -1,082 Descending New York Center
Wed 12:56:29 PM 41.6461 -75.3928 211° Southwest 391 450 16,400 -1,513 Descending New York Center
Wed 12:57:27 PM 41.5578 -75.4644 211° Southwest 380 437 14,800 -1,627 Descending New York Center
Wed 12:58:27 PM 41.4825 -75.5256 211° Southwest 375 432 13,200 -1,388 Descending New York Center
Wed 12:59:28 PM 41.3967 -75.5914 210° Southwest 365 420 12,000 -595 Descending New York Center
Wed 01:00:28 PM 41.3125 -75.6572 210° Southwest 360 414 12,000  Level New York Center
Wed 01:01:29 PM 41.2197 -75.6892 195° South 337 388 12,000  Level New York Center
Wed 01:02:27 PM 41.1467 -75.6892 180° South 286 329 12,000  Level New York Center
Wed 01:03:28 PM 41.0697 -75.6892 180° South 280 322 12,000  Level New York Center
Wed 01:04:28 PM 40.9739 -75.6878 179° South 318 366 12,000  Level New York Center
Wed 01:05:29 PM 40.8781 -75.6864 179° South 346 398 12,000  Level New York Center
Wed 01:06:27 PM 40.7822 -75.6850 179° South 346 398 12,000  Level New York Center
Wed 01:07:27 PM 40.7028 -75.6408 157° South 353 406 12,000  Level New York Center
Wed 01:08:28 PM 40.6200 -75.5747 149° Southeast 353 406 12,000 -244 Level New York Center
Wed 01:09:30 PM 40.5294 -75.4975 147° Southeast 353 406 11,500 -1,000 Descending New York Center
Wed 01:10:28 PM 40.4506 -75.4347 149° Southeast 348 400 10,000 -908 Descending New York Center
Wed 01:11:29 PM 40.3836 -75.3947 156° South 311 358 9,700 -1,041 Descending New York Center
Wed 01:12:29 PM 40.3061 -75.3489 156° South 284 327 7,900 -1,373 Descending New York Center
Wed 01:13:27 PM 40.2367 -75.3089 156° South 284 327 7,000 -966 Descending New York Center
Wed 01:14:27 PM 40.1653 -75.2689 157° South 284 327 6,000 -496 Descending New York Center
Wed 01:15:28 PM 40.1142 -75.2411 157° South 250 288 6,000  Level New York Center
Wed 01:16:28 PM 40.0572 -75.2078 156° South 206 237 6,000  Level New York Center
Wed 01:17:28 PM 40.0367 -75.1439 113° Southeast 192 221 6,000 -198 Level New York Center
Wed 01:18:29 PM 40.0231 -75.0619 102° East 198 228 5,600 -791 Descending New York Center
Wed 01:18:59 PM 40.0167 -75.0167 100° East 209 241 4,800 -1,055 Descending Philadelphia TRACON
Wed 01:20:00 PM 40.0000 -74.9500 108° East 203 234 4,000 -730 Descending Philadelphia TRACON
Wed 01:20:54 PM 39.9667 -74.9167 143° Southeast 163 188 3,400 -526 Descending Philadelphia TRACON
Wed 01:21:54 PM 39.9333 -74.9333 201° Southwest 167 192 3,000 -182 Descending Philadelphia TRACON
Wed 01:23:06 PM 39.9167 -75.0000 252° West 163 188 3,000 -190 Level Philadelphia TRACON
Wed 01:24:00 PM 39.9167 -75.0500 270° West 165 190 2,600 -444 Descending Philadelphia TRACON

Login

Don't have an account? Register now (free) for customized features, flight alerts, and more!